Terminal Aerodrome Forecast
Issued by NWS Central Illinois

Home | Current Version | Previous Version | Text Only | Print | Product List | Glossary On
Versions: 1 2 3 4 5 6 7 8 9 10 11 12 13 14 15 16 17 18 19 20 21 22 23 24 25 26 27 28 29 30 31 32
881
FTUS43 KILX 231506 AAC
TAFPIA
TAF AMD
KPIA 231506Z 2315/2412 03004KT P6SM SCT010
      TEMPO 2315/2316 BKN008
     FM231600 04007KT P6SM OVC015
     FM232000 05009KT P6SM VCSH OVC025
     FM240000 08013KT 4SM -SHRA VCTS OVC015CB
     FM240600 11010KT P6SM VCSH OVC008
     FM240900 16010KT P6SM BKN010 WS020/19040KT=

USA.gov is the U.S. government's official web portal to all federal, state and local government web resources and services.